Time;durP1;ratioP1;P1;durP2;ratioP2;P2;SDS_P1;SDS_P2;PMS_P1;PMS_P2;Temp;Humidity;BMP_temperature;BMP_pressure;BME280_temperature;BME280_humidity;BME280_pressure;Samples;Min_cycle;Max_cycle;Signal;HPM_P1;HPM_P2
2022/08/18 00:02:09;;;;;;;6.95;3.90;;;;;25.30;95893.00;;;;8295736;28;20305;-68
2022/08/18 00:06:48;;;;;;;8.93;4.10;;;;;25.00;95880.00;;;;8295675;28;20217;-70
2022/08/18 00:10:51;;;;;;;7.82;4.05;;;;;25.00;95930.00;;;;8294714;28;20301;-69
2022/08/18 00:14:56;;;;;;;6.40;4.20;;;;;25.00;95919.00;;;;8284537;28;20308;-69
2022/08/18 00:19:00;;;;;;;4.72;4.30;;;;;25.00;95941.00;;;;8295764;28;20329;-69
2022/08/18 00:23:31;;;;;;;7.68;4.78;;;;;25.10;95939.00;;;;8294784;28;20229;-69
2022/08/18 00:27:36;;;;;;;6.38;4.40;;;;;25.10;95937.00;;;;8295518;28;20225;-69
2022/08/18 00:31:40;;;;;;;7.15;4.60;;;;;25.10;95947.00;;;;8295362;28;20226;-69
2022/08/18 00:36:14;;;;;;;7.38;4.47;;;;;25.10;95961.00;;;;8295327;28;20305;-70
2022/08/18 00:40:20;;;;;;;4.68;4.13;;;;;25.00;95957.00;;;;8294662;28;20220;-69
2022/08/18 00:44:23;;;;;;;8.13;4.68;;;;;24.90;95953.00;;;;8285754;28;20240;-71
2022/08/18 00:48:28;;;;;;;6.97;4.53;;;;;24.70;95957.00;;;;8294335;28;20612;-70
2022/08/18 00:52:32;;;;;;;6.38;5.03;;;;;24.50;95957.00;;;;8294889;28;20229;-71
2022/08/18 00:56:39;;;;;;;8.68;4.75;;;;;24.40;95963.00;;;;8301109;28;20222;-71
2022/08/18 01:00:44;;;;;;;8.15;5.13;;;;;24.30;95972.00;;;;8300689;28;20600;-70
2022/08/18 01:05:22;;;;;;;6.95;4.90;;;;;24.10;95976.00;;;;8291192;28;20222;-70
2022/08/18 01:09:25;;;;;;;8.65;5.50;;;;;24.00;95976.00;;;;8300990;28;20296;-70
2022/08/18 01:13:31;;;;;;;7.32;4.70;;;;;23.80;95976.00;;;;8300860;28;20685;-70
2022/08/18 01:22:34;;;;;;;7.78;5.18;;;;;23.50;95972.00;;;;8299902;28;20309;-70
2022/08/18 01:26:48;;;;;;;7.75;5.60;;;;;23.40;95965.00;;;;8300148;28;20666;-70
2022/08/18 01:30:57;;;;;;;5.75;4.55;;;;;23.30;95963.00;;;;8300491;28;20214;-69
2022/08/18 01:35:28;;;;;;;11.15;5.47;;;;;23.20;95954.00;;;;8300953;28;20236;-70
2022/08/18 01:39:38;;;;;;;9.38;5.30;;;;;23.00;95951.00;;;;8299726;28;20229;-70
2022/08/18 01:44:04;;;;;;;9.52;5.13;;;;;23.00;95941.00;;;;8300205;28;20276;-70
2022/08/18 01:48:38;;;;;;;9.05;5.40;;;;;22.90;95945.00;;;;8299811;28;20294;-70
2022/08/18 01:52:41;;;;;;;7.72;5.90;;;;;22.90;95953.00;;;;8299976;28;20221;-70
2022/08/18 01:57:19;;;;;;;8.27;5.32;;;;;22.80;95947.00;;;;8299234;28;20267;-71
2022/08/18 02:01:26;;;;;;;9.05;5.55;;;;;22.80;95928.00;;;;8299298;28;20240;-70
2022/08/18 02:06:01;;;;;;;12.10;5.60;;;;;22.70;95932.00;;;;8290605;28;20245;-71
2022/08/18 02:10:05;;;;;;;7.03;5.60;;;;;22.70;95916.00;;;;8298661;28;20225;-71
2022/08/18 02:14:38;;;;;;;8.65;5.50;;;;;22.70;95892.00;;;;8289552;28;20225;-66
2022/08/18 02:19:16;;;;;;;14.27;5.43;;;;;22.70;95886.00;;;;8299263;28;20229;-67
2022/08/18 02:23:53;;;;;;;8.52;5.38;;;;;22.70;95888.00;;;;8297008;28;20226;-66
2022/08/18 02:27:56;;;;;;;8.07;5.25;;;;;22.50;95889.00;;;;8298343;28;20715;-66
2022/08/18 02:32:33;;;;;;;6.63;5.22;;;;;22.50;95889.00;;;;8298627;28;20600;-66
2022/08/18 02:36:38;;;;;;;7.82;5.30;;;;;22.50;95878.00;;;;8298376;28;20220;-67
2022/08/18 02:41:13;;;;;;;7.07;4.93;;;;;22.60;95872.00;;;;8298425;28;20301;-66
2022/08/18 02:45:16;;;;;;;9.13;5.68;;;;;22.60;95875.00;;;;8298352;28;20232;-66
2022/08/18 02:49:19;;;;;;;6.38;4.53;;;;;22.70;95885.00;;;;8297669;28;20225;-66
2022/08/18 02:53:57;;;;;;;5.30;4.88;;;;;22.70;95891.00;;;;8298164;28;20316;-66
2022/08/18 02:58:02;;;;;;;8.88;4.85;;;;;22.70;95894.00;;;;8297820;28;20226;-66
2022/08/18 03:02:37;;;;;;;6.10;5.50;;;;;22.70;95888.00;;;;8297052;28;20244;-66
2022/08/18 03:06:40;;;;;;;5.15;4.65;;;;;22.80;95885.00;;;;8298010;28;20305;-66
2022/08/18 03:11:14;;;;;;;6.50;4.88;;;;;22.70;95879.00;;;;8296929;28;20321;-66
2022/08/18 03:15:19;;;;;;;9.30;5.05;;;;;22.70;95879.00;;;;8296486;28;20217;-66
2022/08/18 03:19:59;;;;;;;8.75;5.40;;;;;22.70;95871.00;;;;8297228;28;20249;-66
2022/08/18 03:24:35;;;;;;;6.75;4.82;;;;;22.70;95876.00;;;;8296406;28;20237;-66
2022/08/18 03:29:12;;;;;;;6.53;5.22;;;;;22.60;95879.00;;;;8295871;28;20429;-66
2022/08/18 03:33:17;;;;;;;6.00;5.40;;;;;22.60;95876.00;;;;8296823;28;20224;-66
2022/08/18 03:37:20;;;;;;;7.28;5.95;;;;;22.50;95870.00;;;;8296835;28;20228;-66
2022/08/18 03:41:27;;;;;;;9.25;6.28;;;;;22.40;95874.00;;;;8296374;28;20297;-66
2022/08/18 03:45:50;;;;;;;7.65;5.75;;;;;22.40;95879.00;;;;8296098;28;20272;-66
2022/08/18 03:49:55;;;;;;;6.18;5.50;;;;;22.30;95875.00;;;;8295942;28;20231;-66
2022/08/18 03:54:30;;;;;;;6.03;5.43;;;;;22.30;95882.00;;;;8295321;28;20531;-66
2022/08/18 03:58:35;;;;;;;7.30;5.78;;;;;22.30;95897.00;;;;8296159;28;20742;-66
2022/08/18 04:03:10;;;;;;;8.15;5.25;;;;;22.30;95906.00;;;;8295335;28;20304;-66
2022/08/18 04:07:15;;;;;;;8.25;5.50;;;;;22.40;95912.00;;;;8295991;28;20224;-66
2022/08/18 04:11:50;;;;;;;6.45;4.97;;;;;22.30;95914.00;;;;8295101;28;20226;-66
2022/08/18 04:15:54;;;;;;;5.95;4.90;;;;;22.30;95926.00;;;;8295227;28;20670;-66
2022/08/18 04:19:57;;;;;;;7.03;5.57;;;;;22.30;95916.00;;;;8294937;28;20225;-67
2022/08/18 04:24:35;;;;;;;11.63;5.57;;;;;22.30;95920.00;;;;8296196;28;20694;-66
2022/08/18 04:29:10;;;;;;;8.95;6.13;;;;;22.30;95920.00;;;;8294095;28;20221;-66
2022/08/18 04:33:13;;;;;;;6.07;5.47;;;;;22.30;95926.00;;;;8294824;28;20253;-66
2022/08/18 04:37:49;;;;;;;6.50;5.63;;;;;22.20;95918.00;;;;8295507;28;20686;-66
2022/08/18 04:41:54;;;;;;;7.85;5.68;;;;;22.20;95914.00;;;;8295178;28;20370;-66
2022/08/18 04:46:35;;;;;;;6.75;5.30;;;;;22.40;95915.00;;;;8294155;28;20554;-66
2022/08/18 04:50:39;;;;;;;15.73;5.97;;;;;22.50;95911.00;;;;8295224;28;20229;-66
2022/08/18 04:54:42;;;;;;;6.53;5.32;;;;;22.60;95922.00;;;;8292886;28;20555;-66
2022/08/18 04:58:50;;;;;;;11.43;5.53;;;;;22.60;95930.00;;;;8294435;28;20276;-65
2022/08/18 05:03:20;;;;;;;10.27;6.03;;;;;22.60;95934.00;;;;8295092;28;20325;-66
2022/08/18 05:07:57;;;;;;;7.00;5.38;;;;;22.60;95931.00;;;;8294161;28;20703;-66
2022/08/18 05:12:01;;;;;;;9.45;5.60;;;;;22.60;95926.00;;;;8293859;28;20631;-66
2022/08/18 05:16:38;;;;;;;9.07;5.70;;;;;22.50;95933.00;;;;8294430;28;20217;-65
2022/08/18 05:20:52;;;;;;;6.00;5.40;;;;;22.50;95913.00;;;;8294493;28;20226;-65
2022/08/18 05:25:28;;;;;;;32.17;6.18;;;;;22.40;95906.00;;;;8293355;28;20261;-66
2022/08/18 05:29:35;;;;;;;9.35;5.68;;;;;22.30;95897.00;;;;8293886;28;20222;-65
2022/08/18 05:33:49;;;;;;;13.65;6.30;;;;;22.30;95909.00;;;;8293554;28;20257;-65
2022/08/18 05:38:29;;;;;;;7.60;5.90;;;;;22.30;95923.00;;;;8293563;28;20222;-65
2022/08/18 05:42:37;;;;;;;8.57;5.70;;;;;22.50;95927.00;;;;8299296;28;20237;-65
2022/08/18 05:47:11;;;;;;;9.43;5.90;;;;;22.60;95935.00;;;;8299830;28;20309;-65
2022/08/18 05:51:19;;;;;;;7.55;6.45;;;;;22.70;95930.00;;;;8299110;28;20224;-65
2022/08/18 06:00:08;;;;;;;8.52;5.97;;;;;23.10;95925.00;;;;8299246;28;20214;-65
2022/08/18 06:04:22;;;;;;;6.10;5.50;;;;;23.50;95916.00;;;;8299276;28;20591;-65
2022/08/18 06:08:52;;;;;;;8.82;5.80;;;;;23.60;95928.00;;;;8298214;28;20218;-65
2022/08/18 06:13:23;;;;;;;10.90;6.22;;;;;23.70;95937.00;;;;8299731;28;20577;-66
2022/08/18 06:17:56;;;;;;;8.27;5.60;;;;;23.70;95947.00;;;;8298106;28;20220;-65
2022/08/18 06:22:39;;;;;;;7.32;5.60;;;;;23.90;95960.00;;;;8294413;28;20639;-65
2022/08/18 06:32:20;;;;;;;9.02;5.50;;;;;24.40;95961.00;;;;8298504;28;20307;-66
2022/08/18 06:36:52;;;;;;;9.80;5.57;;;;;24.60;95966.00;;;;8298058;28;20304;-65
2022/08/18 06:41:24;;;;;;;8.13;5.07;;;;;24.90;95955.00;;;;8298589;28;20297;-63
2022/08/18 06:45:50;;;;;;;7.18;5.75;;;;;25.30;95948.00;;;;8298070;28;20242;-67
2022/08/18 06:50:21;;;;;;;8.98;5.40;;;;;25.70;95962.00;;;;8296233;28;20230;-65
2022/08/18 06:55:01;;;;;;;11.10;6.22;;;;;25.80;95955.00;;;;8297317;28;20217;-65
2022/08/18 06:59:37;;;;;;;6.18;5.60;;;;;26.00;95960.00;;;;8298022;28;20226;-65
2022/08/18 07:03:44;;;;;;;11.40;5.40;;;;;26.10;95970.00;;;;8296621;28;20228;-65
2022/08/18 07:08:14;;;;;;;5.55;5.05;;;;;26.50;95970.00;;;;8297213;28;20663;-65
2022/08/18 07:12:27;;;;;;;9.93;5.32;;;;;27.10;95963.00;;;;8286520;28;20301;-65
2022/08/18 07:17:07;;;;;;;7.60;5.40;;;;;27.60;95966.00;;;;8296503;28;20233;-66
2022/08/18 07:21:43;;;;;;;5.75;5.15;;;;;28.10;95971.00;;;;8295367;28;20218;-66
2022/08/18 07:25:49;;;;;;;6.88;5.22;;;;;28.70;95978.00;;;;8296055;28;20280;-66
2022/08/18 07:30:11;;;;;;;9.20;5.63;;;;;28.70;95972.00;;;;8296228;28;20317;-66
2022/08/18 07:34:50;;;;;;;9.90;5.85;;;;;28.40;95949.00;;;;8296153;28;20266;-66
2022/08/18 07:39:01;;;;;;;6.90;4.80;;;;;28.40;95948.00;;;;8295817;28;20222;-66
2022/08/18 07:43:33;;;;;;;6.68;5.20;;;;;28.40;95951.00;;;;8296259;28;20214;-66
2022/08/18 07:47:44;;;;;;;10.40;5.38;;;;;28.50;95965.00;;;;8295994;28;20320;-66
2022/08/18 07:52:20;;;;;;;8.70;5.28;;;;;28.90;95966.00;;;;8296263;28;20610;-66
2022/08/18 07:56:50;;;;;;;7.88;4.95;;;;;29.30;95960.00;;;;8294818;28;20276;-66
2022/08/18 08:01:03;;;;;;;9.23;5.82;;;;;29.60;95956.00;;;;8295540;28;20221;-66
2022/08/18 08:05:39;;;;;;;5.88;5.25;;;;;29.70;95942.00;;;;8294766;28;20222;-66
2022/08/18 08:09:52;;;;;;;7.28;5.18;;;;;29.60;95935.00;;;;8294704;28;20226;-66
2022/08/18 08:14:30;;;;;;;7.10;5.68;;;;;29.80;95936.00;;;;8294882;28;20324;-66
2022/08/18 08:18:58;;;;;;;7.85;4.85;;;;;30.40;95927.00;;;;8295433;28;20224;-66
2022/08/18 08:23:31;;;;;;;8.55;5.70;;;;;30.50;95919.00;;;;8294664;28;20586;-66
2022/08/18 08:27:51;;;;;;;6.50;5.30;;;;;30.10;95911.00;;;;8293756;28;20236;-66
2022/08/18 08:32:15;;;;;;;11.38;5.53;;;;;30.30;95905.00;;;;8293844;28;20226;-65
2022/08/18 08:36:52;;;;;;;10.02;6.03;;;;;31.10;95898.00;;;;8294344;28;20726;-65
2022/08/18 08:41:31;;;;;;;6.75;5.43;;;;;31.80;95901.00;;;;8294321;28;20260;-66
2022/08/18 08:46:07;;;;;;;8.30;5.15;;;;;31.70;95915.00;;;;8294402;28;20230;-65
2022/08/18 08:50:14;;;;;;;6.47;5.07;;;;;32.30;95918.00;;;;8293297;28;20623;-67
2022/08/18 08:54:20;;;;;;;7.00;5.20;;;;;32.80;95932.00;;;;8294971;28;20249;-66
2022/08/18 08:58:32;;;;;;;8.98;5.00;;;;;32.80;95920.00;;;;8294525;28;20718;-67
2022/08/18 09:03:08;;;;;;;6.47;5.22;;;;;33.00;95919.00;;;;8293918;28;20232;-66
2022/08/18 09:07:25;;;;;;;6.45;4.82;;;;;33.30;95911.00;;;;8293475;28;20294;-66
2022/08/18 09:12:08;;;;;;;7.32;4.75;;;;;33.60;95900.00;;;;8293943;28;20230;-66
2022/08/18 09:16:45;;;;;;;8.40;5.20;;;;;34.10;95882.00;;;;8294344;28;20658;-66
2022/08/18 09:21:21;;;;;;;8.25;5.30;;;;;33.90;95880.00;;;;8300524;28;20635;-66
2022/08/18 09:25:43;;;;;;;8.52;5.07;;;;;34.20;95865.00;;;;8299721;28;20217;-66
2022/08/18 09:30:07;;;;;;;8.00;4.97;;;;;33.90;95860.00;;;;8300567;28;20229;-66
2022/08/18 09:34:42;;;;;;;15.25;5.15;;;;;33.50;95861.00;;;;8299609;28;20567;-66
2022/08/18 09:44:08;;;;;;;9.45;5.32;;;;;34.10;95846.00;;;;8299590;28;20249;-66
2022/08/18 09:49:23;;;;;;;9.63;4.75;;;;;33.90;95870.00;;;;8299781;28;20359;-66
2022/08/18 09:53:53;;;;;;;12.02;5.53;;;;;33.50;95877.00;;;;8299291;28;20245;-66
2022/08/18 09:58:18;;;;;;;7.75;4.43;;;;;34.40;95880.00;;;;8297322;28;20671;-66
2022/08/18 10:03:10;;;;;;;6.45;4.85;;;;;35.30;95893.00;;;;8298870;28;20210;-66
2022/08/18 10:07:28;;;;;;;7.30;5.18;;;;;35.70;95881.00;;;;8292410;28;20573;-64
2022/08/18 10:12:20;;;;;;;10.38;4.15;;;;;35.90;95888.00;;;;8298792;28;20621;-66
2022/08/18 10:16:35;;;;;;;8.90;4.25;;;;;35.60;95891.00;;;;8285071;28;20628;-68
2022/08/18 10:21:47;;;;;;;7.47;4.63;;;;;35.20;95891.00;;;;8297839;28;20230;-68
2022/08/18 10:26:43;;;;;;;6.57;4.88;;;;;34.40;95898.00;;;;8297316;28;20253;-66
2022/08/18 10:31:59;;;;;;;8.02;4.45;;;;;34.90;95903.00;;;;8265420;28;20218;-67
2022/08/18 10:36:51;;;;;;;6.63;4.70;;;;;35.30;95905.00;;;;8264490;28;20245;-67
2022/08/18 10:41:30;;;;;;;7.20;4.50;;;;;35.90;95897.00;;;;8263637;28;20316;-67
2022/08/18 10:46:04;;;;;;;7.15;5.13;;;;;36.20;95888.00;;;;8265587;28;20237;-66
2022/08/18 10:50:47;;;;;;;9.55;4.82;;;;;36.20;95880.00;;;;8265152;28;20707;-67
2022/08/18 10:55:17;;;;;;;5.32;4.82;;;;;36.40;95871.00;;;;8266270;28;20224;-66
2022/08/18 10:59:34;;;;;;;7.53;5.00;;;;;36.70;95874.00;;;;8265072;28;20221;-67
2022/08/18 11:04:07;;;;;;;7.22;4.90;;;;;37.00;95871.00;;;;8265299;28;20238;-65
2022/08/18 11:08:45;;;;;;;8.18;4.72;;;;;37.30;95867.00;;;;8264937;28;20683;-66
2022/08/18 11:13:23;;;;;;;8.93;4.88;;;;;37.90;95857.00;;;;8264639;28;20314;-65
2022/08/18 11:17:39;;;;;;;6.05;4.93;;;;;38.10;95858.00;;;;8264281;28;20207;-66
2022/08/18 11:21:47;;;;;;;11.98;5.15;;;;;38.00;95855.00;;;;8265081;28;20231;-66
2022/08/18 11:25:55;;;;;;;7.13;4.57;;;;;37.80;95843.00;;;;8263890;28;20687;-65
2022/08/18 11:30:29;;;;;;;6.60;4.40;;;;;37.50;95844.00;;;;8294449;28;20313;-66
2022/08/18 11:35:06;;;;;;;5.05;4.22;;;;;37.70;95847.00;;;;8295566;28;20635;-66
2022/08/18 11:39:40;;;;;;;5.15;4.65;;;;;37.50;95854.00;;;;8296802;28;20217;-67
2022/08/18 11:44:20;;;;;;;7.32;4.65;;;;;37.50;95845.00;;;;8296697;28;20601;-68
2022/08/18 11:48:51;;;;;;;5.55;4.13;;;;;37.40;95832.00;;;;8296137;28;20226;-67
2022/08/18 11:53:53;;;;;;;9.18;4.50;;;;;36.90;95836.00;;;;8296401;28;20272;-67
2022/08/18 11:58:38;;;;;;;5.10;4.57;;;;;37.20;95833.00;;;;8296674;28;20283;-67
2022/08/18 12:03:20;;;;;;;5.32;4.50;;;;;37.40;95841.00;;;;8294854;28;20297;-65
2022/08/18 12:07:29;;;;;;;6.05;4.38;;;;;37.10;95834.00;;;;8295437;28;20260;-62
2022/08/18 12:12:01;;;;;;;6.35;4.68;;;;;36.90;95833.00;;;;8295651;28;20249;-65
2022/08/18 12:16:14;;;;;;;10.73;5.20;;;;;36.90;95829.00;;;;8295737;28;20649;-65
2022/08/18 12:20:48;;;;;;;8.80;4.90;;;;;37.00;95819.00;;;;8295175;28;20237;-62
2022/08/18 12:24:53;;;;;;;6.60;4.95;;;;;37.10;95788.00;;;;8295662;28;20221;-62
2022/08/18 12:29:29;;;;;;;5.13;4.63;;;;;36.90;95777.00;;;;8294313;28;20230;-62
2022/08/18 12:33:46;;;;;;;10.27;4.57;;;;;37.00;95775.00;;;;8263201;28;20277;-61
2022/08/18 12:38:45;;;;;;;5.82;4.53;;;;;37.00;95786.00;;;;8262640;28;20690;-62
2022/08/18 12:43:24;;;;;;;8.85;4.72;;;;;37.20;95767.00;;;;8263045;28;20221;-62
2022/08/18 12:47:38;;;;;;;8.48;4.68;;;;;37.20;95761.00;;;;8262385;28;20223;-62
2022/08/18 12:52:09;;;;;;;7.03;5.15;;;;;37.20;95752.00;;;;8262528;28;20222;-62
2022/08/18 12:56:47;;;;;;;6.97;4.70;;;;;36.50;95743.00;;;;8262492;28;20312;-62
2022/08/18 13:00:54;;;;;;;8.57;5.07;;;;;36.10;95732.00;;;;8262588;28;20301;-62
2022/08/18 13:05:27;;;;;;;8.63;5.72;;;;;35.70;95727.00;;;;8261596;28;20222;-62
2022/08/18 13:10:05;;;;;;;10.93;5.05;;;;;35.50;95727.00;;;;8262114;28;20584;-62
2022/08/18 13:14:23;;;;;;;5.25;4.85;;;;;35.30;95740.00;;;;8261445;28;20215;-66
2022/08/18 13:18:28;;;;;;;9.85;4.50;;;;;34.90;95745.00;;;;8262217;28;20218;-66
2022/08/18 13:22:31;;;;;;;9.32;5.10;;;;;34.60;95733.00;;;;8261903;28;20305;-66
2022/08/18 13:27:06;;;;;;;7.00;4.95;;;;;34.30;95746.00;;;;8259652;28;20226;-65
2022/08/18 13:36:44;;;;;;;10.75;5.53;;;;;34.40;95744.00;;;;8293205;28;20555;-70
2022/08/18 13:41:14;;;;;;;7.55;4.90;;;;;35.00;95744.00;;;;8294354;28;20660;-71
2022/08/18 13:45:21;;;;;;;5.80;4.25;;;;;35.90;95730.00;;;;8294568;28;20214;-70
2022/08/18 13:49:55;;;;;;;14.52;5.10;;;;;35.80;95721.00;;;;8294373;28;20222;-70
2022/08/18 13:54:34;;;;;;;11.40;5.20;;;;;35.30;95724.00;;;;8293691;28;20567;-70
2022/08/18 13:58:40;;;;;;;5.53;4.43;;;;;35.00;95731.00;;;;8293329;28;20234;-71
2022/08/18 14:02:57;;;;;;;6.60;4.40;;;;;34.60;95718.00;;;;8299940;28;20521;-71
2022/08/18 14:07:00;;;;;;;5.80;4.57;;;;;34.50;95710.00;;;;8299441;28;20222;-74
2022/08/18 14:11:12;;;;;;;8.00;4.38;;;;;34.50;95722.00;;;;8300281;28;20222;-73
2022/08/18 14:15:15;;;;;;;6.53;4.72;;;;;34.60;95721.00;;;;8300497;28;20248;-74
2022/08/18 14:29:08;;;;;;;6.45;4.22;;;;;34.50;95685.00;;;;8299000;28;20221;-74
2022/08/18 14:33:44;;;;;;;6.70;4.43;;;;;34.50;95669.00;;;;8299059;28;20707;-74
2022/08/18 14:38:18;;;;;;;6.38;4.18;;;;;34.50;95671.00;;;;8298436;28;20222;-74
2022/08/18 14:42:55;;;;;;;7.38;4.93;;;;;34.60;95669.00;;;;8296210;28;20236;-75
2022/08/18 14:47:01;;;;;;;6.68;3.88;;;;;34.60;95660.00;;;;8294664;28;20244;-74
2022/08/18 14:51:35;;;;;;;6.28;4.05;;;;;34.50;95654.00;;;;8296845;28;20606;-75
2022/08/18 14:56:12;;;;;;;5.32;4.55;;;;;34.50;95657.00;;;;8297324;28;20281;-75
2022/08/18 15:00:46;;;;;;;4.40;4.00;;;;;34.50;95652.00;;;;8297505;28;20222;-74
2022/08/18 15:05:26;;;;;;;7.03;4.05;;;;;34.60;95638.00;;;;8296705;28;20214;-78
2022/08/18 15:09:59;;;;;;;5.30;4.20;;;;;34.80;95635.00;;;;8286669;28;20241;-75
2022/08/18 15:14:58;;;;;;;6.88;3.97;;;;;35.10;95622.00;;;;8296506;28;20218;-75
2022/08/18 15:19:37;;;;;;;10.48;4.57;;;;;35.20;95617.00;;;;8295917;28;20228;-75
2022/08/18 15:28:48;;;;;;;6.68;4.47;;;;;35.30;95604.00;;;;8296203;28;20229;-76
2022/08/18 15:32:53;;;;;;;4.75;4.28;;;;;35.60;95599.00;;;;8296109;28;20276;-76
2022/08/18 15:37:27;;;;;;;8.55;4.20;;;;;35.90;95593.00;;;;8295977;28;20280;-76
2022/08/18 15:42:09;;;;;;;4.07;3.70;;;;;36.00;95596.00;;;;8293655;28;20537;-78
2022/08/18 15:46:40;;;;;;;8.82;4.30;;;;;36.10;95594.00;;;;8296477;28;20405;-77
2022/08/18 15:51:17;;;;;;;7.00;4.95;;;;;35.80;95589.00;;;;8295095;28;20217;-78
2022/08/18 15:55:23;;;;;;;7.22;4.70;;;;;35.60;95597.00;;;;8295509;28;20237;-76
2022/08/18 15:59:54;;;;;;;7.78;4.10;;;;;35.50;95587.00;;;;8294801;28;20308;-79
2022/08/18 16:04:37;;;;;;;5.88;3.92;;;;;35.40;95592.00;;;;8293749;28;20217;-79
2022/08/18 16:09:11;;;;;;;8.38;4.15;;;;;35.20;95593.00;;;;8294794;28;20318;-80
2022/08/18 16:13:48;;;;;;;6.57;4.10;;;;;35.10;95597.00;;;;8294652;28;20308;-80
2022/08/18 16:18:22;;;;;;;4.43;4.13;;;;;34.80;95588.00;;;;8294912;28;20624;-81
2022/08/18 16:22:59;;;;;;;9.50;4.47;;;;;34.60;95577.00;;;;8294232;28;20313;-81
2022/08/18 16:27:40;;;;;;;4.70;4.30;;;;;34.30;95578.00;;;;8294041;28;20280;-79
2022/08/18 16:31:44;;;;;;;9.75;4.43;;;;;34.10;95584.00;;;;8294309;28;20229;-76
2022/08/18 16:36:17;;;;;;;5.30;4.30;;;;;33.80;95586.00;;;;8285490;28;20253;-76
2022/08/18 16:40:54;;;;;;;6.72;4.50;;;;;33.50;95583.00;;;;8294310;28;20305;-76
2022/08/18 16:45:27;;;;;;;5.80;4.53;;;;;33.40;95585.00;;;;8294360;28;20224;-75
2022/08/18 16:50:01;;;;;;;6.65;5.10;;;;;33.10;95571.00;;;;8293893;28;20226;-75
2022/08/18 16:54:38;;;;;;;7.75;4.75;;;;;32.90;95573.00;;;;8294092;28;20217;-75
2022/08/18 17:04:10;;;;;;;5.10;4.50;;;;;32.30;95568.00;;;;8294668;28;20245;-75
2022/08/18 17:09:00;;;;;;;4.47;4.07;;;;;32.10;95575.00;;;;8293482;28;20236;-79
2022/08/18 17:13:33;;;;;;;4.93;4.38;;;;;31.90;95566.00;;;;8293901;28;20540;-77
2022/08/18 17:18:11;;;;;;;5.47;4.72;;;;;31.70;95564.00;;;;8293503;28;20267;-77
2022/08/18 17:22:49;;;;;;;5.43;4.55;;;;;31.50;95558.00;;;;8293781;28;20665;-76
2022/08/18 17:27:28;;;;;;;7.30;4.53;;;;;31.30;95554.00;;;;8294282;28;20222;-77
2022/08/18 17:32:02;;;;;;;6.18;4.70;;;;;31.10;95543.00;;;;8294068;28;20260;-79
2022/08/18 17:36:38;;;;;;;7.50;4.70;;;;;30.90;95545.00;;;;8295361;28;20218;-77
2022/08/18 17:41:13;;;;;;;8.27;4.82;;;;;30.70;95539.00;;;;8299473;28;20230;-77
2022/08/18 17:45:48;;;;;;;6.95;4.93;;;;;30.60;95534.00;;;;8300025;28;20594;-78
2022/08/18 17:55:27;;;;;;;15.63;5.32;;;;;30.30;95537.00;;;;8198697;29;20251;-77
2022/08/18 18:05:02;;;;;;;14.75;5.25;;;;;29.90;95553.00;;;;8299195;28;20220;-77
2022/08/18 18:09:40;;;;;;;11.52;5.90;;;;;29.60;95547.00;;;;8288332;28;20229;-78
2022/08/18 18:14:22;;;;;;;10.52;5.50;;;;;29.20;95551.00;;;;8298955;28;20717;-79
2022/08/18 18:18:57;;;;;;;11.80;5.80;;;;;28.50;95553.00;;;;8298351;28;20226;-78
2022/08/18 18:23:34;;;;;;;14.40;6.70;;;;;28.20;95578.00;;;;8297908;28;20256;-81
2022/08/18 18:28:24;;;;;;;10.88;6.15;;;;;27.90;95565.00;;;;8299052;28;20548;-81
2022/08/18 18:32:50;;;;;;;7.05;6.25;;;;;27.80;95579.00;;;;8298592;28;20248;-81
2022/08/18 18:37:25;;;;;;;9.23;6.65;;;;;27.80;95584.00;;;;8297181;28;20225;-81
2022/08/18 18:41:28;;;;;;;8.90;6.45;;;;;27.70;95583.00;;;;8298700;28;20226;-82
2022/08/18 18:45:32;;;;;;;9.40;5.95;;;;;27.70;95584.00;;;;8298177;28;20245;-80
2022/08/18 18:50:13;;;;;;;9.18;6.63;;;;;27.60;95601.00;;;;8286146;28;20233;-81
2022/08/18 18:54:47;;;;;;;8.80;6.50;;;;;27.40;95615.00;;;;8297961;28;20237;-82
2022/08/18 18:59:36;;;;;;;8.75;7.30;;;;;26.90;95632.00;;;;8297532;28;20238;-76
2022/08/18 19:04:07;;;;;;;14.82;8.15;;;;;26.00;95645.00;;;;8296738;28;20229;-71
2022/08/18 19:08:45;;;;;;;13.43;8.50;;;;;25.40;95646.00;;;;8297284;28;20552;-70
2022/08/18 19:13:25;;;;;;;13.05;9.43;;;;;24.60;95659.00;;;;8296440;28;20232;-74
2022/08/18 19:18:01;;;;;;;14.15;10.25;;;;;23.60;95670.00;;;;8286415;28;20591;-67
2022/08/18 19:22:35;;;;;;;12.55;9.90;;;;;23.00;95663.00;;;;8296366;28;20246;-68
2022/08/18 19:27:18;;;;;;;16.88;11.23;;;;;22.70;95667.00;;;;8296067;28;20650;-66
2022/08/18 19:31:48;;;;;;;18.00;12.57;;;;;22.40;95663.00;;;;8295844;28;20615;-68
2022/08/18 19:35:57;;;;;;;17.75;12.27;;;;;22.10;95686.00;;;;8294926;28;20819;-68
2022/08/18 19:40:31;;;;;;;17.90;12.23;;;;;21.90;95676.00;;;;8295214;28;20698;-68
2022/08/18 19:45:11;;;;;;;12.85;10.82;;;;;21.80;95680.00;;;;8291504;28;20241;-70
2022/08/18 19:49:48;;;;;;;17.45;12.70;;;;;21.60;95678.00;;;;8290163;28;20640;-67
2022/08/18 19:54:29;;;;;;;16.73;12.63;;;;;21.60;95670.00;;;;8287994;28;20221;-68
2022/08/18 19:59:15;;;;;;;17.65;11.88;;;;;21.50;95676.00;;;;8291150;28;20304;-69
2022/08/18 20:04:02;;;;;;;18.95;13.90;;;;;21.50;95677.00;;;;8291530;28;20662;-68
2022/08/18 20:08:38;;;;;;;18.48;14.23;;;;;21.50;95677.00;;;;8294501;28;20305;-70
2022/08/18 20:13:00;;;;;;;17.88;13.90;;;;;21.40;95684.00;;;;8294107;28;20245;-71
2022/08/18 20:17:28;;;;;;;24.15;14.23;;;;;21.30;95687.00;;;;8294291;28;20224;-70
2022/08/18 20:22:07;;;;;;;18.40;13.32;;;;;21.30;95667.00;;;;8293727;28;20305;-69
2022/08/18 20:26:44;;;;;;;25.38;11.80;;;;;21.20;95676.00;;;;8293544;28;20545;-69
2022/08/18 20:31:22;;;;;;;16.70;12.52;;;;;21.20;95688.00;;;;8293314;28;20240;-70
2022/08/18 20:35:40;;;;;;;19.63;11.88;;;;;21.20;95695.00;;;;8243857;28;1444112;-70
2022/08/18 20:40:32;;;;;;;14.23;11.32;;;;;21.20;95701.00;;;;8295046;28;20233;-70
2022/08/18 20:44:58;;;;;;;14.77;10.93;;;;;21.30;95704.00;;;;8294105;28;20226;-70
2022/08/18 20:49:26;;;;;;;14.02;10.95;;;;;21.30;95717.00;;;;8294727;28;20426;-67
2022/08/18 20:53:54;;;;;;;16.48;12.38;;;;;21.40;95729.00;;;;8294554;28;20654;-68
2022/08/18 20:58:39;;;;;;;14.82;12.30;;;;;21.50;95741.00;;;;8294452;28;20218;-69
2022/08/18 21:03:15;;;;;;;14.30;12.80;;;;;21.60;95751.00;;;;8292324;28;20309;-68
2022/08/18 21:07:23;;;;;;;15.35;11.52;;;;;21.70;95767.00;;;;8295067;28;20296;-69
2022/08/18 21:11:55;;;;;;;17.75;13.10;;;;;21.70;95766.00;;;;8297403;28;20679;-68
2022/08/18 21:16:32;;;;;;;17.40;12.63;;;;;21.70;95759.00;;;;8301036;28;20574;-68
2022/08/18 21:21:14;;;;;;;17.55;13.48;;;;;21.70;95761.00;;;;8301150;28;20225;-68
2022/08/18 21:25:49;;;;;;;17.40;13.10;;;;;21.70;95763.00;;;;8300132;28;20221;-68
2022/08/18 21:30:27;;;;;;;16.40;13.60;;;;;21.70;95769.00;;;;8300358;28;20226;-68
2022/08/18 21:34:35;;;;;;;15.77;13.05;;;;;21.60;95772.00;;;;8299988;28;20222;-68
2022/08/18 21:38:48;;;;;;;17.42;13.02;;;;;21.60;95785.00;;;;8300779;28;20305;-69
2022/08/18 21:43:09;;;;;;;17.65;12.95;;;;;21.60;95788.00;;;;8299602;28;20213;-68
2022/08/18 21:47:47;;;;;;;18.02;12.95;;;;;21.50;95798.00;;;;8300985;28;20220;-68
2022/08/18 21:51:52;;;;;;;15.90;12.23;;;;;21.50;95790.00;;;;8300167;28;20642;-68
2022/08/18 21:56:27;;;;;;;17.88;14.25;;;;;21.50;95794.00;;;;8299659;28;20228;-68
2022/08/18 22:00:33;;;;;;;17.80;13.65;;;;;21.60;95800.00;;;;8299261;28;20218;-69
2022/08/18 22:05:07;;;;;;;17.63;13.57;;;;;21.60;95796.00;;;;8299505;28;20226;-68
2022/08/18 22:14:32;;;;;;;21.55;14.57;;;;;21.70;95793.00;;;;8299412;28;20312;-68
2022/08/18 22:18:39;;;;;;;19.90;14.57;;;;;21.70;95790.00;;;;8299128;28;20222;-68
2022/08/18 22:27:21;;;;;;;20.95;15.98;;;;;21.60;95791.00;;;;8299578;28;20241;-68
2022/08/18 22:31:27;;;;;;;19.15;14.80;;;;;21.60;95785.00;;;;8298602;28;20218;-68
2022/08/18 22:35:30;;;;;;;21.13;16.33;;;;;21.60;95790.00;;;;8298500;28;20656;-68
2022/08/18 22:40:09;;;;;;;27.23;18.13;;;;;21.70;95793.00;;;;8298604;28;20321;-68
2022/08/18 22:44:14;;;;;;;24.83;16.40;;;;;21.70;95793.00;;;;8298221;28;20218;-69
2022/08/18 22:48:17;;;;;;;23.73;15.52;;;;;21.80;95798.00;;;;8298254;28;20582;-69
2022/08/18 22:52:24;;;;;;;25.58;19.15;;;;;21.70;95797.00;;;;8298313;28;20313;-68
2022/08/18 22:56:32;;;;;;;26.52;19.50;;;;;21.60;95785.00;;;;8297952;28;20304;-69
2022/08/18 23:01:07;;;;;;;31.75;21.95;;;;;21.50;95793.00;;;;8297753;28;20702;-69
2022/08/18 23:05:12;;;;;;;26.35;20.40;;;;;21.50;95788.00;;;;8297717;28;20711;-68
2022/08/18 23:09:15;;;;;;;28.42;21.73;;;;;21.50;95770.00;;;;8298010;28;20312;-68